| time (UTC) | temp F | wind direction | speed knots | gust knots | rain 1hr in | rain 24hr in | rain mn in | humidity % | barometer mb |
| 20260510094738 | 46 | 219 | 0.0 | 0.0 | 0.00 | 0.08 | 0.08 | 98 | 1006.7 |
| 20260510094234 | 46 | 205 | 0.0 | 0.0 | 0.00 | 0.08 | 0.08 | 99 | 1006.8 |
| 20260510093730 | 46 | 193 | 0.0 | 0.0 | 0.00 | 0.08 | 0.08 | 99 | 1007.1 |
| 20260510093227 | 46 | 205 | 0.0 | 0.0 | 0.00 | 0.08 | 0.08 | 99 | 1007.3 |
| 20260510092723 | 45 | 212 | 0.0 | 0.0 | 0.00 | 0.08 | 0.08 | 99 | 1007.3 |
| 20260510092219 | 46 | 212 | 0.0 | 0.0 | 0.00 | 0.08 | 0.08 | 99 | 1007.2 |
| 20260510091715 | 45 | 217 | 0.0 | 0.0 | 0.00 | 0.08 | 0.08 | 99 | 1007.2 |
| 20260510091212 | 45 | 217 | 0.0 | 0.0 | 0.00 | 0.08 | 0.08 | 99 | 1006.8 |
| 20260510090708 | 45 | 208 | 0.0 | 0.0 | 0.00 | 0.08 | 0.08 | 98 | 1006.3 |
| 20260510090205 | 45 | 205 | 0.0 | 0.0 | 0.00 | 0.08 | 0.08 | 98 | 1006.4 |
| 20260510085700 | 45 | 209 | 0.0 | 0.0 | 0.00 | 0.08 | 0.08 | 98 | 1006.6 |
| 20260510085155 | 45 | 187 | 0.0 | 0.0 | 0.00 | 0.08 | 0.08 | 98 | 1006.7 |
| 20260510084652 | 45 | 202 | 0.0 | 0.0 | 0.00 | 0.08 | 0.08 | 98 | 1006.7 |
| 20260510084149 | 44 | 203 | 0.0 | 0.0 | 0.00 | 0.08 | 0.08 | 98 | 1006.6 |
| 20260510083645 | 44 | 199 | 0.0 | 0.0 | 0.00 | 0.08 | 0.08 | 98 | 1006.7 |
| 20260510083142 | 44 | 206 | 0.0 | 0.0 | 0.00 | 0.08 | 0.08 | 98 | 1006.8 |
| 20260510082639 | 45 | 215 | 0.0 | 0.0 | 0.00 | 0.08 | 0.08 | 98 | 1006.9 |
| 20260510082134 | 45 | 207 | 0.0 | 0.0 | 0.00 | 0.08 | 0.08 | 97 | 1006.6 |
| 20260510081629 | 45 | 205 | 0.0 | 0.0 | 0.00 | 0.08 | 0.08 | 97 | 1006.6 |
| 20260510081126 | 45 | 210 | 0.0 | 0.0 | 0.00 | 0.08 | 0.08 | 97 | 1006.3 |
| 20260510080625 | 45 | 209 | 0.0 | 0.0 | 0.00 | 0.08 | 0.08 | 97 | 1006.3 |
| 20260510080122 | 45 | 208 | 0.0 | 0.0 | 0.00 | 0.08 | 0.08 | 97 | 1006.2 |
| 20260510075619 | 46 | 200 | 0.0 | 0.0 | 0.00 | 0.08 | 0.08 | 96 | 1006.3 |
| 20260510075116 | 45 | 211 | 0.0 | 0.0 | 0.00 | 0.08 | 0.08 | 97 | 1006.3 |
| 20260510074613 | 45 | 205 | 0.0 | 0.0 | 0.00 | 0.08 | 0.08 | 97 | 1006.4 |
| 20260510074109 | 45 | 208 | 0.0 | 0.0 | 0.00 | 0.08 | 0.08 | 97 | 1006.4 |
| 20260510073605 | 45 | 201 | 0.0 | 0.0 | 0.00 | 0.08 | 0.08 | 98 | 1006.4 |
| 20260510073102 | 46 | 196 | 0.0 | 0.0 | 0.00 | 0.08 | 0.08 | 98 | 1006.4 |
| 20260510072559 | 46 | 207 | 0.0 | 0.0 | 0.00 | 0.08 | 0.08 | 98 | 1006.3 |
| 20260510072054 | 46 | 205 | 0.0 | 0.0 | 0.00 | 0.08 | 0.08 | 98 | 1006.6 |
| 20260510071551 | 46 | 214 | 0.0 | 0.0 | 0.00 | 0.08 | 0.08 | 97 | 1006.6 |
| 20260510071049 | 46 | 213 | 0.0 | 0.0 | 0.00 | 0.08 | 0.08 | 97 | 1006.4 |
| 20260510070545 | 46 | 218 | 0.0 | 0.0 | 0.00 | 0.08 | 0.08 | 97 | 1006.4 |
| 20260510070043 | 47 | 189 | 0.0 | 0.0 | 0.00 | 0.08 | 0.08 | 97 | 1006.6 |
| 20260510065539 | 47 | 194 | 0.0 | 0.0 | 0.00 | 0.08 | 0.08 | 96 | 1006.4 |
| 20260510065034 | 47 | 184 | 0.0 | 0.0 | 0.00 | 0.08 | 0.08 | 96 | 1006.8 |
| 20260510064531 | 47 | 214 | 0.0 | 0.0 | 0.00 | 0.08 | 0.08 | 96 | 1006.4 |
| 20260510064028 | 47 | 208 | 0.0 | 0.0 | 0.00 | 0.08 | 0.08 | 95 | 1006.4 |
| 20260510063525 | 48 | 209 | 0.0 | 0.0 | 0.00 | 0.08 | 0.08 | 95 | 1006.6 |
| 20260510063022 | 48 | 211 | 0.9 | 1.7 | 0.00 | 0.08 | 0.08 | 94 | 1006.4 |
| 20260510062518 | 48 | 205 | 0.0 | 0.0 | 0.00 | 0.08 | 0.08 | 94 | 1006.4 |
| 20260510062013 | 48 | 200 | 1.7 | 2.6 | 0.00 | 0.08 | 0.08 | 93 | 1006.2 |
| 20260510061510 | 48 | 252 | 0.0 | 0.0 | 0.00 | 0.08 | 0.08 | 92 | 1006.4 |
| 20260510061007 | 48 | 178 | 0.9 | 0.9 | 0.00 | 0.08 | 0.08 | 94 | 1006.2 |
| 20260510060503 | 48 | 208 | 0.0 | 0.0 | 0.00 | 0.08 | 0.08 | 94 | 1006.4 |
| 20260510055959 | 48 | 193 | 0.0 | 0.0 | 0.00 | 0.08 | 0.08 | 93 | 1006.2 |
| 20260510055455 | 48 | 197 | 0.0 | 0.0 | 0.05 | 0.08 | 0.08 | 93 | 1006.6 |
| 20260510054954 | 48 | 213 | 0.0 | 0.0 | 0.12 | 0.08 | 0.08 | 94 | 1006.3 |
| 20260510054449 | 48 | 210 | 0.0 | 0.0 | 0.12 | 0.07 | 0.07 | 94 | 1006.6 |
| 20260510053944 | 48 | 203 | 0.0 | 0.0 | 0.05 | 0.06 | 0.06 | 95 | 1006.6 |
| 20260510053439 | 48 | 199 | 0.0 | 0.0 | 0.07 | 0.05 | 0.05 | 95 | 1006.7 |
| 20260510052936 | 48 | 213 | 0.0 | 0.0 | 0.07 | 0.05 | 0.05 | 95 | 1006.7 |
| 20260510052432 | 49 | 199 | 0.0 | 0.0 | 0.07 | 0.05 | 0.05 | 95 | 1006.3 |
| 20260510051928 | 49 | 189 | 0.0 | 0.0 | 0.05 | 0.04 | 0.04 | 95 | 1006.6 |
| 20260510051425 | 49 | 207 | 0.0 | 0.0 | 0.12 | 0.04 | 0.04 | 93 | 1006.6 |
| 20260510050921 | 49 | 197 | 0.0 | 0.0 | 0.19 | 0.03 | 0.03 | 92 | 1006.6 |
| 20260510050418 | 50 | 211 | 0.0 | 0.0 | 0.12 | 0.02 | 0.02 | 89 | 1006.6 |
| 20260510045915 | 51 | 209 | 0.0 | 0.0 | 0.07 | 0.01 | 0.01 | 86 | 1006.6 |
| 20260510045412 | 51 | 231 | 0.0 | 0.9 | 0.00 | 0.00 | 0.00 | 82 | 1006.4 |
| 20260510044909 | 51 | 205 | 0.0 | 0.0 | 0.00 | 0.00 | 0.00 | 80 | 1006.3 |
| 20260510044406 | 51 | 216 | 0.0 | 0.0 | 0.00 | 0.00 | 0.00 | 80 | 1006.0 |
| 20260510043902 | 51 | 200 | 0.0 | 0.0 | 0.00 | 0.00 | 0.00 | 80 | 1006.1 |
| 20260510043358 | 51 | 249 | 0.9 | 0.9 | 0.00 | 0.00 | 0.00 | 80 | 1006.0 |
| 20260510042857 | 51 | 196 | 1.7 | 1.7 | 0.00 | 0.00 | 0.00 | 80 | 1006.1 |
| 20260510042352 | 51 | 168 | 0.0 | 0.9 | 0.00 | 0.00 | 0.00 | 81 | 1006.0 |
| 20260510041849 | 51 | 218 | 2.6 | 5.2 | 0.00 | 0.00 | 0.00 | 80 | 1006.1 |
| 20260510041346 | 50 | 194 | 0.0 | 0.9 | 0.00 | 0.00 | 0.00 | 81 | 1006.2 |
| 20260510040843 | 50 | 234 | 0.9 | 0.9 | 0.00 | 0.00 | 0.00 | 82 | 1005.9 |
| 20260510040340 | 49 | 196 | 0.0 | 0.9 | 0.00 | 0.00 | 0.00 | 83 | 1005.8 |
| 20260510035835 | 48 | 205 | 0.0 | 0.0 | 0.00 | 0.00 | 0.00 | 86 | 1005.5 |
| 20260510035331 | 49 | 191 | 0.0 | 0.0 | 0.00 | 0.00 | 0.00 | 84 | 1005.4 |
| 20260510034827 | 48 | 197 | 0.0 | 0.0 | 0.00 | 0.00 | 0.00 | 85 | 1005.5 |
| 20260510034325 | 47 | 208 | 0.0 | 0.0 | 0.00 | 0.00 | 0.00 | 87 | 1005.4 |
| 20260510033821 | 47 | 207 | 0.0 | 0.0 | 0.00 | 0.00 | 0.00 | 88 | 1005.4 |
| 20260510033319 | 47 | 216 | 0.0 | 0.0 | 0.00 | 0.00 | 0.00 | 88 | 1005.4 |
| 20260510032815 | 48 | 203 | 0.0 | 0.0 | 0.00 | 0.00 | 0.00 | 87 | 1005.1 |
| 20260510032312 | 48 | 200 | 0.0 | 0.0 | 0.00 | 0.00 | 0.00 | 86 | 1005.3 |
| 20260510031807 | 48 | 206 | 0.0 | 0.0 | 0.00 | 0.00 | 0.00 | 85 | 1005.3 |
| 20260510031303 | 48 | 205 | 0.0 | 0.0 | 0.00 | 0.00 | 0.00 | 84 | 1005.2 |
| 20260510030803 | 49 | 209 | 0.0 | 0.0 | 0.00 | 0.00 | 0.00 | 84 | 1005.4 |
| 20260510030300 | 49 | 200 | 0.0 | 0.0 | 0.00 | 0.00 | 0.00 | 84 | 1005.5 |
| 20260510025757 | 49 | 169 | 2.6 | 3.5 | 0.00 | 0.00 | 0.00 | 84 | 1005.5 |
| 20260510025254 | 49 | 203 | 0.0 | 0.0 | 0.00 | 0.00 | 0.00 | 84 | 1005.6 |
| 20260510024751 | 49 | 196 | 0.9 | 0.9 | 0.00 | 0.00 | 0.00 | 83 | 1005.7 |
| 20260510024248 | 48 | 185 | 0.0 | 0.9 | 0.00 | 0.00 | 0.00 | 85 | 1005.7 |
| 20260510023743 | 48 | 183 | 0.0 | 0.0 | 0.00 | 0.00 | 0.00 | 84 | 1005.8 |
| 20260510023236 | 48 | 203 | 0.0 | 0.0 | 0.00 | 0.00 | 0.00 | 84 | 1005.6 |
| 20260510022732 | 48 | 195 | 0.0 | 0.0 | 0.00 | 0.00 | 0.00 | 84 | 1005.9 |
| 20260510022231 | 48 | 186 | 0.0 | 0.0 | 0.00 | 0.00 | 0.00 | 84 | 1005.9 |
| 20260510021726 | 48 | 201 | 0.0 | 0.0 | 0.00 | 0.00 | 0.00 | 84 | 1005.8 |
| 20260510021224 | 48 | 219 | 0.0 | 0.0 | 0.00 | 0.00 | 0.00 | 83 | 1006.0 |
| 20260510020719 | 49 | 180 | 0.0 | 0.0 | 0.00 | 0.00 | 0.00 | 82 | 1005.9 |
| 20260510020219 | 49 | 170 | 0.9 | 1.7 | 0.00 | 0.00 | 0.00 | 81 | 1006.0 |
| 20260510015715 | 49 | 220 | 0.0 | 0.0 | 0.00 | 0.00 | 0.00 | 81 | 1006.3 |
| 20260510015212 | 48 | 205 | 0.0 | 0.0 | 0.00 | 0.00 | 0.00 | 82 | 1006.1 |
| 20260510014707 | 48 | 217 | 0.0 | 0.0 | 0.00 | 0.00 | 0.00 | 84 | 1006.2 |
| 20260510014200 | 47 | 200 | 0.0 | 0.0 | 0.00 | 0.00 | 0.00 | 84 | 1006.0 |
| 20260510013659 | 47 | 189 | 0.0 | 0.0 | 0.00 | 0.00 | 0.00 | 86 | 1006.0 |
| 20260510013156 | 46 | 154 | 0.9 | 0.9 | 0.00 | 0.00 | 0.00 | 87 | 1005.9 |
| 20260510012655 | 47 | 168 | 0.0 | 0.9 | 0.00 | 0.00 | 0.00 | 87 | 1006.0 |
| 20260510012151 | 47 | 199 | 0.0 | 0.0 | 0.00 | 0.00 | 0.00 | 86 | 1005.7 |
| 20260510011646 | 47 | 204 | 0.0 | 0.0 | 0.00 | 0.00 | 0.00 | 86 | 1005.8 |
| 20260510011142 | 47 | 192 | 0.0 | 0.0 | 0.00 | 0.00 | 0.00 | 86 | 1005.6 |
| 20260510010638 | 47 | 139 | 0.9 | 1.7 | 0.00 | 0.00 | 0.00 | 87 | 1005.8 |
| 20260510010136 | 47 | 202 | 0.9 | 0.9 | 0.00 | 0.00 | 0.00 | 86 | 1005.5 |
| 20260510005631 | 46 | 195 | 0.0 | 0.0 | 0.00 | 0.00 | 0.00 | 87 | 1005.5 |
| 20260510005128 | 46 | 196 | 0.0 | 0.9 | 0.00 | 0.00 | 0.00 | 87 | 1005.7 |
| 20260510004627 | 47 | 217 | 0.0 | 0.0 | 0.00 | 0.00 | 0.00 | 86 | 1005.9 |
| 20260510004124 | 47 | 203 | 0.0 | 0.0 | 0.00 | 0.00 | 0.00 | 85 | 1005.9 |
| 20260510003621 | 47 | 195 | 0.0 | 0.0 | 0.00 | 0.00 | 0.00 | 85 | 1006.0 |
| 20260510003117 | 47 | 191 | 0.0 | 0.0 | 0.00 | 0.00 | 0.00 | 85 | 1005.7 |
| 20260510002612 | 48 | 203 | 0.0 | 0.0 | 0.00 | 0.00 | 0.00 | 84 | 1005.7 |
| 20260510002109 | 48 | 131 | 1.7 | 1.7 | 0.00 | 0.00 | 0.00 | 84 | 1005.8 |
| 20260510001606 | 48 | 201 | 0.0 | 0.0 | 0.00 | 0.00 | 0.00 | 83 | 1005.8 |
| 20260510001105 | 48 | 208 | 0.0 | 0.0 | 0.00 | 0.00 | 0.00 | 82 | 1006.0 |
| 20260510000605 | 48 | 231 | 0.0 | 0.0 | 0.00 | 0.00 | 0.00 | 82 | 1006.1 |
| 20260509235558 | 49 | 214 | 0.0 | 0.0 | 0.00 | 0.00 | 0.00 | 81 | 1006.1 |
| 20260509235055 | 49 | 205 | 0.0 | 0.0 | 0.00 | 0.00 | 0.00 | 81 | 1006.1 |
| 20260509234551 | 49 | 122 | 0.9 | 1.7 | 0.00 | 0.00 | 0.00 | 80 | 1006.2 |
| 20260509234049 | 49 | 166 | 0.9 | 1.7 | 0.00 | 0.00 | 0.00 | 80 | 1006.1 |
| 20260509233547 | 49 | 194 | 1.7 | 1.7 | 0.00 | 0.00 | 0.00 | 79 | 1005.8 |
| 20260509233044 | 50 | 165 | 2.6 | 2.6 | 0.00 | 0.00 | 0.00 | 78 | 1005.9 |
| 20260509232541 | 50 | 184 | 0.0 | 0.0 | 0.00 | 0.00 | 0.00 | 77 | 1005.8 |
| 20260509232037 | 50 | 185 | 0.9 | 2.6 | 0.00 | 0.00 | 0.00 | 77 | 1005.9 |
| 20260509231533 | 50 | 155 | 1.7 | 1.7 | 0.00 | 0.00 | 0.00 | 77 | 1005.7 |
| 20260509231031 | 50 | 175 | 1.7 | 2.6 | 0.00 | 0.00 | 0.00 | 77 | 1005.7 |
| 20260509230528 | 50 | 184 | 0.0 | 0.0 | 0.00 | 0.00 | 0.00 | 77 | 1006.0 |
| 20260509230025 | 50 | 202 | 0.9 | 1.7 | 0.00 | 0.00 | 0.00 | 78 | 1006.0 |
| 20260509225520 | 50 | 180 | 1.7 | 1.7 | 0.00 | 0.00 | 0.00 | 78 | 1005.9 |
| 20260509225016 | 50 | 217 | 0.0 | 0.9 | 0.00 | 0.00 | 0.00 | 77 | 1006.1 |
| 20260509224512 | 50 | 156 | 2.6 | 3.5 | 0.00 | 0.00 | 0.00 | 77 | 1006.0 |
| 20260509224009 | 50 | 135 | 1.7 | 1.7 | 0.00 | 0.00 | 0.00 | 77 | 1006.0 |
| 20260509223505 | 50 | 120 | 0.9 | 1.7 | 0.00 | 0.00 | 0.00 | 77 | 1006.1 |
| 20260509223003 | 50 | 157 | 0.0 | 0.0 | 0.00 | 0.00 | 0.00 | 76 | 1006.0 |
| 20260509222458 | 50 | 113 | 0.9 | 1.7 | 0.00 | 0.00 | 0.00 | 76 | 1005.6 |
| 20260509221955 | 50 | 187 | 1.7 | 1.7 | 0.00 | 0.00 | 0.00 | 76 | 1005.8 |
| 20260509221451 | 50 | 192 | 0.0 | 0.0 | 0.00 | 0.00 | 0.00 | 75 | 1005.8 |
| 20260509220947 | 50 | 142 | 0.9 | 1.7 | 0.00 | 0.00 | 0.00 | 76 | 1005.7 |
| 20260509220443 | 50 | 164 | 0.9 | 1.7 | 0.00 | 0.00 | 0.00 | 75 | 1005.8 |
| 20260509215939 | 51 | 87 | 3.5 | 6.1 | 0.00 | 0.00 | 0.00 | 74 | 1005.9 |
| 20260509215435 | 51 | 97 | 1.7 | 2.6 | 0.00 | 0.00 | 0.00 | 73 | 1005.8 |
| 20260509214932 | 51 | 211 | 0.9 | 1.7 | 0.00 | 0.00 | 0.00 | 72 | 1005.9 |
| 20260509214430 | 52 | 205 | 0.9 | 0.9 | 0.00 | 0.00 | 0.00 | 71 | 1006.1 |
| 20260509213926 | 52 | 216 | 0.0 | 0.0 | 0.00 | 0.00 | 0.00 | 71 | 1006.0 |
| 20260509213422 | 53 | 177 | 0.0 | 0.9 | 0.00 | 0.00 | 0.00 | 69 | 1006.2 |
| 20260509212920 | 53 | 220 | 1.7 | 2.6 | 0.00 | 0.00 | 0.00 | 69 | 1006.4 |
| 20260509212417 | 53 | 242 | 0.9 | 1.7 | 0.00 | 0.00 | 0.00 | 68 | 1006.1 |
| 20260509211913 | 53 | 118 | 2.6 | 2.6 | 0.00 | 0.00 | 0.00 | 68 | 1006.0 |
| 20260509211409 | 53 | 82 | 0.9 | 2.6 | 0.00 | 0.00 | 0.00 | 69 | 1006.1 |
| 20260509210905 | 53 | 121 | 4.3 | 5.2 | 0.00 | 0.00 | 0.00 | 68 | 1006.0 |
| 20260509210403 | 52 | 196 | 0.0 | 0.0 | 0.00 | 0.00 | 0.00 | 70 | 1005.8 |
| 20260509205858 | 52 | 157 | 2.6 | 2.6 | 0.00 | 0.00 | 0.00 | 70 | 1005.8 |
| 20260509205358 | 52 | 137 | 1.7 | 1.7 | 0.00 | 0.00 | 0.00 | 70 | 1006.0 |
| 20260509204855 | 51 | 165 | 2.6 | 2.6 | 0.00 | 0.00 | 0.00 | 70 | 1006.1 |
| 20260509204351 | 51 | 202 | 0.9 | 0.9 | 0.00 | 0.00 | 0.00 | 71 | 1006.2 |
| 20260509203847 | 51 | 180 | 1.7 | 2.6 | 0.00 | 0.00 | 0.00 | 70 | 1006.3 |
| 20260509203344 | 51 | 222 | 1.7 | 2.6 | 0.00 | 0.00 | 0.00 | 70 | 1006.3 |
| 20260509202841 | 51 | 164 | 0.9 | 1.7 | 0.00 | 0.00 | 0.00 | 70 | 1006.3 |
| 20260509202337 | 51 | 227 | 0.0 | 0.9 | 0.00 | 0.00 | 0.00 | 69 | 1006.6 |
| 20260509201837 | 52 | 180 | 5.2 | 7.0 | 0.00 | 0.00 | 0.00 | 68 | 1006.6 |
| 20260509201328 | 53 | 183 | 1.7 | 3.5 | 0.00 | 0.00 | 0.00 | 67 | 1006.7 |
| 20260509200824 | 52 | 162 | 0.9 | 1.7 | 0.00 | 0.00 | 0.00 | 67 | 1006.6 |
| 20260509200320 | 52 | 115 | 0.0 | 1.7 | 0.00 | 0.00 | 0.00 | 66 | 1006.7 |
| 20260509195816 | 53 | 207 | 1.7 | 3.5 | 0.00 | 0.00 | 0.00 | 65 | 1006.6 |
| 20260509195311 | 52 | 180 | 1.7 | 2.6 | 0.00 | 0.00 | 0.00 | 65 | 1006.6 |
| 20260509194810 | 53 | 225 | 0.9 | 0.9 | 0.00 | 0.00 | 0.00 | 64 | 1006.7 |
| 20260509194307 | 53 | 182 | 0.0 | 0.9 | 0.00 | 0.00 | 0.00 | 63 | 1006.8 |
| 20260509193804 | 54 | 207 | 3.5 | 6.1 | 0.00 | 0.00 | 0.00 | 61 | 1006.6 |
| 20260509193304 | 55 | 212 | 0.0 | 0.0 | 0.00 | 0.00 | 0.00 | 59 | 1006.6 |
| 20260509192800 | 56 | 227 | 0.0 | 0.9 | 0.00 | 0.00 | 0.00 | 58 | 1006.6 |
| 20260509192256 | 56 | 208 | 0.0 | 0.0 | 0.00 | 0.00 | 0.00 | 58 | 1006.7 |
| 20260509191751 | 55 | 212 | 2.6 | 2.6 | 0.00 | 0.00 | 0.00 | 57 | 1006.8 |
| 20260509191248 | 55 | 214 | 0.9 | 1.7 | 0.00 | 0.00 | 0.00 | 59 | 1006.6 |
| 20260509190743 | 56 | 132 | 3.5 | 5.2 | 0.00 | 0.00 | 0.00 | 57 | 1006.8 |
| 20260509190241 | 57 | 133 | 0.0 | 0.9 | 0.00 | 0.00 | 0.00 | 55 | 1006.7 |
| 20260509185738 | 56 | 218 | 1.7 | 2.6 | 0.00 | 0.00 | 0.00 | 56 | 1006.8 |
| 20260509185234 | 55 | 239 | 1.7 | 3.5 | 0.00 | 0.00 | 0.00 | 57 | 1006.9 |
| 20260509184732 | 55 | 198 | 0.9 | 1.7 | 0.00 | 0.00 | 0.00 | 58 | 1006.8 |
| 20260509184229 | 55 | 173 | 0.0 | 0.0 | 0.00 | 0.00 | 0.00 | 59 | 1007.2 |
| 20260509183725 | 55 | 87 | 3.5 | 5.2 | 0.00 | 0.00 | 0.00 | 59 | 1006.9 |
| 20260509183221 | 53 | 181 | 3.5 | 6.1 | 0.00 | 0.00 | 0.00 | 61 | 1007.1 |
| 20260509182716 | 54 | 167 | 6.1 | 7.0 | 0.00 | 0.00 | 0.00 | 60 | 1007.0 |
| 20260509182214 | 54 | 226 | 1.7 | 2.6 | 0.00 | 0.00 | 0.00 | 60 | 1007.2 |
| 20260509181712 | 55 | 193 | 2.6 | 3.5 | 0.00 | 0.00 | 0.00 | 59 | 1007.2 |
| 20260509181209 | 53 | 213 | 0.9 | 1.7 | 0.00 | 0.00 | 0.00 | 62 | 1007.1 |
| 20260509180706 | 53 | 192 | 0.9 | 1.7 | 0.00 | 0.00 | 0.00 | 62 | 1007.2 |
| 20260509180202 | 54 | 191 | 2.6 | 3.5 | 0.00 | 0.00 | 0.00 | 60 | 1007.4 |
| 20260509175659 | 54 | 181 | 0.9 | 0.9 | 0.00 | 0.00 | 0.00 | 60 | 1007.2 |
| 20260509175155 | 55 | 127 | 3.5 | 3.5 | 0.00 | 0.00 | 0.00 | 59 | 1007.3 |
| 20260509174651 | 56 | 306 | 0.9 | 1.7 | 0.00 | 0.00 | 0.00 | 57 | 1007.5 |
| 20260509174150 | 57 | 203 | 0.0 | 0.0 | 0.00 | 0.00 | 0.00 | 55 | 1007.5 |
| 20260509173647 | 56 | 194 | 0.0 | 0.0 | 0.00 | 0.00 | 0.00 | 56 | 1007.4 |
| 20260509173142 | 56 | 213 | 1.7 | 3.5 | 0.00 | 0.00 | 0.00 | 55 | 1007.5 |
| 20260509172639 | 55 | 215 | 0.0 | 0.9 | 0.00 | 0.00 | 0.00 | 56 | 1007.4 |
| 20260509172136 | 55 | 123 | 0.9 | 1.7 | 0.00 | 0.00 | 0.00 | 55 | 1007.5 |
| 20260509171631 | 55 | 141 | 0.9 | 1.7 | 0.00 | 0.00 | 0.00 | 55 | 1007.8 |
| 20260509171128 | 56 | 179 | 2.6 | 3.5 | 0.00 | 0.00 | 0.00 | 54 | 1007.8 |
| 20260509170624 | 55 | 219 | 0.0 | 0.9 | 0.00 | 0.00 | 0.00 | 54 | 1007.8 |
| 20260509170120 | 55 | 169 | 1.7 | 1.7 | 0.00 | 0.00 | 0.00 | 53 | 1007.8 |
| 20260509165619 | 56 | 174 | 0.9 | 0.9 | 0.00 | 0.00 | 0.00 | 51 | 1007.7 |
| 20260509165115 | 55 | 109 | 1.7 | 2.6 | 0.00 | 0.00 | 0.00 | 51 | 1008.0 |
| 20260509164611 | 55 | 140 | 1.7 | 2.6 | 0.00 | 0.00 | 0.00 | 50 | 1007.8 |
| 20260509164106 | 55 | 203 | 6.1 | 9.6 | 0.00 | 0.00 | 0.00 | 49 | 1008.0 |
| 20260509163605 | 55 | 188 | 5.2 | 7.8 | 0.00 | 0.00 | 0.00 | 48 | 1007.8 |
| 20260509163100 | 56 | 203 | 1.7 | 2.6 | 0.00 | 0.00 | 0.00 | 47 | 1007.9 |
| 20260509162557 | 56 | 102 | 1.7 | 1.7 | 0.00 | 0.00 | 0.00 | 46 | 1007.9 |
| 20260509162053 | 56 | 205 | 0.0 | 0.9 | 0.00 | 0.00 | 0.00 | 45 | 1008.2 |
| 20260509161545 | 55 | 196 | 2.6 | 2.6 | 0.00 | 0.00 | 0.00 | 45 | 1008.0 |
| 20260509161045 | 55 | 152 | 0.9 | 2.6 | 0.00 | 0.00 | 0.00 | 45 | 1008.0 |
| 20260509160541 | 55 | 189 | 0.9 | 2.6 | 0.00 | 0.00 | 0.00 | 43 | 1008.3 |
| 20260509160036 | 55 | 214 | 0.0 | 0.0 | 0.00 | 0.00 | 0.00 | 43 | 1008.4 |
| 20260509155533 | 55 | 210 | 0.0 | 0.0 | 0.00 | 0.00 | 0.00 | 43 | 1008.4 |
| 20260509155029 | 56 | 148 | 0.0 | 0.9 | 0.00 | 0.00 | 0.00 | 42 | 1008.4 |
| 20260509154525 | 55 | 167 | 0.9 | 0.9 | 0.00 | 0.00 | 0.00 | 42 | 1008.5 |
| 20260509154023 | 55 | 126 | 3.5 | 5.2 | 0.00 | 0.00 | 0.00 | 41 | 1008.3 |
| 20260509153520 | 56 | 235 | 1.7 | 3.5 | 0.00 | 0.00 | 0.00 | 40 | 1008.5 |
| 20260509153017 | 56 | 183 | 2.6 | 2.6 | 0.00 | 0.00 | 0.00 | 40 | 1008.8 |
| 20260509152512 | 58 | 202 | 0.0 | 0.0 | 0.00 | 0.00 | 0.00 | 38 | 1008.6 |
| 20260509152009 | 60 | 230 | 0.0 | 0.9 | 0.00 | 0.00 | 0.00 | 36 | 1008.8 |
| 20260509151505 | 58 | 210 | 0.0 | 0.0 | 0.00 | 0.00 | 0.00 | 36 | 1008.5 |
| 20260509151004 | 55 | 193 | 0.0 | 0.9 | 0.00 | 0.00 | 0.00 | 38 | 1009.1 |
| 20260509150500 | 55 | 168 | 1.7 | 1.7 | 0.00 | 0.00 | 0.00 | 38 | 1009.3 |
| 20260509145959 | 56 | 106 | 4.3 | 5.2 | 0.00 | 0.00 | 0.00 | 38 | 1009.0 |
| 20260509145454 | 54 | 225 | 0.0 | 0.0 | 0.00 | 0.00 | 0.00 | 39 | 1009.1 |
| 20260509144949 | 53 | 179 | 2.6 | 5.2 | 0.00 | 0.00 | 0.00 | 39 | 1009.2 |
| 20260509144447 | 54 | 123 | 1.7 | 2.6 | 0.00 | 0.00 | 0.00 | 39 | 1009.2 |
| 20260509143944 | 54 | 214 | 0.0 | 0.0 | 0.00 | 0.00 | 0.00 | 38 | 1009.2 |
| 20260509143441 | 54 | 111 | 0.9 | 3.5 | 0.00 | 0.00 | 0.00 | 39 | 1009.4 |
| 20260509142937 | 54 | 163 | 3.5 | 6.1 | 0.00 | 0.00 | 0.00 | 38 | 1009.0 |
| 20260509142434 | 54 | 105 | 2.6 | 3.5 | 0.00 | 0.00 | 0.00 | 37 | 1009.5 |
| 20260509141929 | 54 | 207 | 0.0 | 0.0 | 0.00 | 0.00 | 0.00 | 38 | 1009.4 |
| 20260509141426 | 53 | 171 | 1.7 | 2.6 | 0.00 | 0.00 | 0.00 | 38 | 1009.4 |
| 20260509140923 | 53 | 174 | 1.7 | 3.5 | 0.00 | 0.00 | 0.00 | 36 | 1009.5 |
| 20260509140420 | 54 | 128 | 1.7 | 1.7 | 0.00 | 0.00 | 0.00 | 37 | 1009.3 |
| 20260509135918 | 53 | 179 | 0.0 | 0.0 | 0.00 | 0.00 | 0.00 | 38 | 1009.4 |
| 20260509135415 | 53 | 191 | 0.9 | 1.7 | 0.00 | 0.00 | 0.00 | 37 | 1009.4 |
| 20260509134913 | 53 | 170 | 0.9 | 1.7 | 0.00 | 0.00 | 0.00 | 36 | 1009.4 |
| 20260509134410 | 53 | 214 | 0.0 | 0.0 | 0.00 | 0.00 | 0.00 | 36 | 1009.4 |
| 20260509133907 | 52 | 108 | 3.5 | 6.1 | 0.00 | 0.00 | 0.00 | 36 | 1009.3 |
| 20260509133403 | 52 | 174 | 0.9 | 1.7 | 0.00 | 0.00 | 0.00 | 36 | 1009.5 |
| 20260509132902 | 53 | 174 | 0.0 | 0.9 | 0.00 | 0.00 | 0.00 | 36 | 1009.5 |
| 20260509132359 | 53 | 205 | 0.0 | 0.0 | 0.00 | 0.00 | 0.00 | 35 | 1009.7 |
| 20260509131857 | 53 | 92 | 1.7 | 1.7 | 0.00 | 0.00 | 0.00 | 34 | 1009.8 |
| 20260509131354 | 52 | 199 | 0.0 | 0.9 | 0.00 | 0.00 | 0.00 | 36 | 1009.6 |
| 20260509130850 | 52 | 168 | 0.9 | 1.7 | 0.00 | 0.00 | 0.00 | 36 | 1009.6 |
| 20260509130345 | 54 | 134 | 1.7 | 3.5 | 0.00 | 0.00 | 0.00 | 35 | 1009.3 |
| 20260509125843 | 54 | 180 | 0.0 | 0.0 | 0.00 | 0.00 | 0.00 | 36 | 1009.5 |
| 20260509125339 | 53 | 184 | 2.6 | 3.5 | 0.00 | 0.00 | 0.00 | 35 | 1009.7 |
| 20260509124835 | 52 | 167 | 0.0 | 0.9 | 0.00 | 0.00 | 0.00 | 38 | 1009.6 |
| 20260509124332 | 52 | 198 | 0.9 | 1.7 | 0.00 | 0.00 | 0.00 | 37 | 1009.7 |
| 20260509123830 | 51 | 167 | 0.0 | 0.9 | 0.00 | 0.00 | 0.00 | 37 | 1009.6 |
| 20260509123327 | 51 | 145 | 0.0 | 0.9 | 0.00 | 0.00 | 0.00 | 38 | 1009.7 |
| 20260509122822 | 50 | 152 | 1.7 | 1.7 | 0.00 | 0.00 | 0.00 | 38 | 1009.5 |
| 20260509122320 | 50 | 100 | 2.6 | 2.6 | 0.00 | 0.00 | 0.00 | 39 | 1009.6 |
| 20260509121817 | 49 | 202 | 0.0 | 0.0 | 0.00 | 0.00 | 0.00 | 41 | 1009.7 |
| 20260509121314 | 48 | 176 | 1.7 | 1.7 | 0.00 | 0.00 | 0.00 | 41 | 1009.9 |
| 20260509120812 | 47 | 148 | 0.9 | 1.7 | 0.00 | 0.00 | 0.00 | 43 | 1009.8 |
| 20260509120310 | 46 | 127 | 1.7 | 2.6 | 0.00 | 0.00 | 0.00 | 44 | 1009.7 |
| 20260509115808 | 46 | 149 | 1.7 | 1.7 | 0.00 | 0.00 | 0.00 | 46 | 1009.7 |
| 20260509115307 | 46 | 171 | 0.9 | 1.7 | 0.00 | 0.00 | 0.00 | 48 | 1009.9 |
| 20260509114802 | 45 | 208 | 0.0 | 0.0 | 0.00 | 0.00 | 0.00 | 48 | 1009.7 |
| 20260509114301 | 44 | 177 | 1.7 | 1.7 | 0.00 | 0.00 | 0.00 | 50 | 1009.8 |
| 20260509113759 | 44 | 185 | 1.7 | 1.7 | 0.00 | 0.00 | 0.00 | 52 | 1009.9 |
| 20260509113256 | 43 | 152 | 1.7 | 2.6 | 0.00 | 0.00 | 0.00 | 54 | 1009.9 |
| 20260509112753 | 42 | 147 | 0.9 | 0.9 | 0.00 | 0.00 | 0.00 | 56 | 1009.7 |
| 20260509112250 | 41 | 193 | 0.9 | 1.7 | 0.00 | 0.00 | 0.00 | 59 | 1009.8 |
| 20260509111747 | 41 | 206 | 0.0 | 0.9 | 0.00 | 0.00 | 0.00 | 60 | 1009.8 |
| 20260509111244 | 39 | 184 | 0.9 | 0.9 | 0.00 | 0.00 | 0.00 | 62 | 1010.0 |
| 20260509110741 | 39 | 195 | 0.9 | 1.7 | 0.00 | 0.00 | 0.00 | 61 | 1009.9 |
| 20260509110238 | 38 | 195 | 0.0 | 0.9 | 0.00 | 0.00 | 0.00 | 64 | 1010.0 |
| 20260509105736 | 37 | 194 | 0.0 | 0.0 | 0.00 | 0.00 | 0.00 | 67 | 1009.8 |
| 20260509105233 | 36 | 182 | 0.9 | 0.9 | 0.00 | 0.00 | 0.00 | 68 | 1009.9 |
| 20260509104730 | 34 | 188 | 0.0 | 0.0 | 0.00 | 0.00 | 0.00 | 74 | 1009.8 |
| 20260509104227 | 33 | 205 | 0.0 | 0.0 | 0.00 | 0.00 | 0.00 | 79 | 1009.8 |
| 20260509103725 | 33 | 214 | 0.0 | 0.0 | 0.00 | 0.00 | 0.00 | 81 | 1010.0 |
| 20260509103222 | 33 | 214 | 0.0 | 0.0 | 0.00 | 0.00 | 0.00 | 79 | 1009.9 |
| 20260509102720 | 34 | 198 | 0.0 | 0.0 | 0.00 | 0.00 | 0.00 | 72 | 1010.0 |
| 20260509102217 | 34 | 196 | 0.0 | 0.0 | 0.00 | 0.00 | 0.00 | 72 | 1009.9 |
| 20260509101713 | 34 | 132 | 1.7 | 2.6 | 0.00 | 0.00 | 0.00 | 71 | 1009.9 |
| 20260509101209 | 34 | 199 | 0.0 | 0.0 | 0.00 | 0.00 | 0.00 | 72 | 1010.1 |
| 20260509100708 | 34 | 188 | 0.0 | 0.9 | 0.00 | 0.00 | 0.00 | 73 | 1010.0 |
| 20260509100204 | 33 | 125 | 1.7 | 2.6 | 0.00 | 0.00 | 0.00 | 73 | 1010.1 |
| 20260509095701 | 33 | 155 | 0.0 | 0.0 | 0.00 | 0.00 | 0.00 | 74 | 1009.9 |